sensor_id;sensor_type;location;lat;lon;timestamp;P1;durP1;ratioP1;P2;durP2;ratioP2
8694;SDS011;65580;49.446;6.854;2023-05-17T00:03:19;5.68;;;1.80;;
8694;SDS011;65580;49.446;6.854;2023-05-17T00:07:22;3.13;;;1.42;;
8694;SDS011;65580;49.446;6.854;2023-05-17T00:11:24;4.32;;;1.52;;
8694;SDS011;65580;49.446;6.854;2023-05-17T00:15:28;6.97;;;1.50;;
8694;SDS011;65580;49.446;6.854;2023-05-17T00:19:31;2.47;;;1.33;;
8694;SDS011;65580;49.446;6.854;2023-05-17T00:23:34;7.53;;;1.60;;
8694;SDS011;65580;49.446;6.854;2023-05-17T00:32:59;4.53;;;1.52;;
8694;SDS011;65580;49.446;6.854;2023-05-17T00:41:05;3.53;;;1.60;;
8694;SDS011;65580;49.446;6.854;2023-05-17T00:45:08;5.82;;;1.70;;
8694;SDS011;65580;49.446;6.854;2023-05-17T00:49:12;4.53;;;2.10;;
8694;SDS011;65580;49.446;6.854;2023-05-17T00:53:15;3.30;;;1.52;;
8694;SDS011;65580;49.446;6.854;2023-05-17T00:57:17;4.55;;;2.10;;
8694;SDS011;65580;49.446;6.854;2023-05-17T01:01:20;5.50;;;2.05;;
8694;SDS011;65580;49.446;6.854;2023-05-17T01:05:24;4.43;;;1.90;;
8694;SDS011;65580;49.446;6.854;2023-05-17T01:09:29;5.60;;;1.85;;
8694;SDS011;65580;49.446;6.854;2023-05-17T01:13:32;5.75;;;2.30;;
8694;SDS011;65580;49.446;6.854;2023-05-17T01:17:44;5.45;;;2.08;;
8694;SDS011;65580;49.446;6.854;2023-05-17T01:21:57;7.47;;;2.50;;
8694;SDS011;65580;49.446;6.854;2023-05-17T01:26:06;5.78;;;2.38;;
8694;SDS011;65580;49.446;6.854;2023-05-17T01:30:14;8.38;;;2.67;;
8694;SDS011;65580;49.446;6.854;2023-05-17T01:34:23;7.32;;;2.72;;
8694;SDS011;65580;49.446;6.854;2023-05-17T01:38:26;7.18;;;2.65;;
8694;SDS011;65580;49.446;6.854;2023-05-17T01:42:30;7.57;;;2.25;;
8694;SDS011;65580;49.446;6.854;2023-05-17T01:46:36;9.65;;;2.55;;
8694;SDS011;65580;49.446;6.854;2023-05-17T01:50:40;8.50;;;2.50;;
8694;SDS011;65580;49.446;6.854;2023-05-17T01:54:45;7.22;;;2.30;;
8694;SDS011;65580;49.446;6.854;2023-05-17T01:58:49;7.20;;;2.30;;
8694;SDS011;65580;49.446;6.854;2023-05-17T02:02:55;9.48;;;2.42;;
8694;SDS011;65580;49.446;6.854;2023-05-17T02:06:57;9.05;;;2.55;;
8694;SDS011;65580;49.446;6.854;2023-05-17T02:11:00;6.25;;;2.90;;
8694;SDS011;65580;49.446;6.854;2023-05-17T02:15:03;4.97;;;2.00;;
8694;SDS011;65580;49.446;6.854;2023-05-17T02:19:09;5.13;;;2.10;;
8694;SDS011;65580;49.446;6.854;2023-05-17T02:23:13;7.35;;;2.38;;
8694;SDS011;65580;49.446;6.854;2023-05-17T02:27:16;6.13;;;2.22;;
8694;SDS011;65580;49.446;6.854;2023-05-17T02:31:18;8.57;;;2.30;;
8694;SDS011;65580;49.446;6.854;2023-05-17T02:35:23;6.40;;;1.80;;
8694;SDS011;65580;49.446;6.854;2023-05-17T02:39:25;7.28;;;1.98;;
8694;SDS011;65580;49.446;6.854;2023-05-17T02:43:28;6.15;;;2.08;;
8694;SDS011;65580;49.446;6.854;2023-05-17T02:47:31;5.13;;;1.67;;
8694;SDS011;65580;49.446;6.854;2023-05-17T02:51:35;5.07;;;1.90;;
8694;SDS011;65580;49.446;6.854;2023-05-17T02:55:38;6.85;;;2.10;;
8694;SDS011;65580;49.446;6.854;2023-05-17T02:59:40;7.57;;;2.13;;
8694;SDS011;65580;49.446;6.854;2023-05-17T03:03:43;8.55;;;2.00;;
8694;SDS011;65580;49.446;6.854;2023-05-17T03:07:47;8.20;;;2.00;;
8694;SDS011;65580;49.446;6.854;2023-05-17T03:15:53;5.93;;;1.90;;
8694;SDS011;65580;49.446;6.854;2023-05-17T03:19:55;6.22;;;1.80;;
8694;SDS011;65580;49.446;6.854;2023-05-17T03:23:59;5.40;;;1.65;;
8694;SDS011;65580;49.446;6.854;2023-05-17T03:28:02;7.75;;;1.98;;
8694;SDS011;65580;49.446;6.854;2023-05-17T03:32:05;12.48;;;2.00;;
8694;SDS011;65580;49.446;6.854;2023-05-17T03:36:08;3.33;;;1.33;;
8694;SDS011;65580;49.446;6.854;2023-05-17T03:40:12;8.85;;;1.70;;
8694;SDS011;65580;49.446;6.854;2023-05-17T03:44:15;3.80;;;1.55;;
8694;SDS011;65580;49.446;6.854;2023-05-17T03:48:18;5.55;;;1.80;;
8694;SDS011;65580;49.446;6.854;2023-05-17T03:52:20;6.00;;;1.98;;
8694;SDS011;65580;49.446;6.854;2023-05-17T03:56:24;9.30;;;2.28;;
8694;SDS011;65580;49.446;6.854;2023-05-17T04:00:27;6.60;;;1.80;;
8694;SDS011;65580;49.446;6.854;2023-05-17T04:04:30;7.78;;;1.88;;
8694;SDS011;65580;49.446;6.854;2023-05-17T04:08:33;3.95;;;1.65;;
8694;SDS011;65580;49.446;6.854;2023-05-17T04:12:38;6.28;;;1.80;;
8694;SDS011;65580;49.446;6.854;2023-05-17T04:16:40;6.53;;;1.77;;
8694;SDS011;65580;49.446;6.854;2023-05-17T04:20:43;8.20;;;2.00;;
8694;SDS011;65580;49.446;6.854;2023-05-17T04:24:46;5.72;;;2.30;;
8694;SDS011;65580;49.446;6.854;2023-05-17T04:28:50;13.30;;;2.33;;
8694;SDS011;65580;49.446;6.854;2023-05-17T04:36:55;8.73;;;2.80;;
8694;SDS011;65580;49.446;6.854;2023-05-17T04:41:01;10.02;;;3.40;;
8694;SDS011;65580;49.446;6.854;2023-05-17T04:45:07;9.35;;;3.15;;
8694;SDS011;65580;49.446;6.854;2023-05-17T04:49:10;9.52;;;3.33;;
8694;SDS011;65580;49.446;6.854;2023-05-17T04:53:13;10.40;;;3.67;;
8694;SDS011;65580;49.446;6.854;2023-05-17T04:57:16;9.43;;;3.50;;
8694;SDS011;65580;49.446;6.854;2023-05-17T05:01:20;10.75;;;3.78;;
8694;SDS011;65580;49.446;6.854;2023-05-17T05:05:23;10.32;;;3.67;;
8694;SDS011;65580;49.446;6.854;2023-05-17T05:09:26;14.77;;;3.83;;
8694;SDS011;65580;49.446;6.854;2023-05-17T05:13:30;13.32;;;3.72;;
8694;SDS011;65580;49.446;6.854;2023-05-17T05:21:37;9.75;;;3.90;;
8694;SDS011;65580;49.446;6.854;2023-05-17T05:25:39;7.90;;;3.42;;
8694;SDS011;65580;49.446;6.854;2023-05-17T05:29:42;8.02;;;3.38;;
8694;SDS011;65580;49.446;6.854;2023-05-17T05:33:46;10.25;;;3.25;;
8694;SDS011;65580;49.446;6.854;2023-05-17T05:37:50;7.25;;;2.90;;
8694;SDS011;65580;49.446;6.854;2023-05-17T05:41:52;7.82;;;3.35;;
8694;SDS011;65580;49.446;6.854;2023-05-17T05:45:55;10.52;;;3.80;;
8694;SDS011;65580;49.446;6.854;2023-05-17T05:49:59;11.57;;;3.10;;
8694;SDS011;65580;49.446;6.854;2023-05-17T05:54:02;10.40;;;3.78;;
8694;SDS011;65580;49.446;6.854;2023-05-17T05:58:05;12.63;;;3.10;;
8694;SDS011;65580;49.446;6.854;2023-05-17T06:02:07;12.65;;;2.90;;
8694;SDS011;65580;49.446;6.854;2023-05-17T06:06:12;9.57;;;3.15;;
8694;SDS011;65580;49.446;6.854;2023-05-17T06:10:16;6.85;;;2.88;;
8694;SDS011;65580;49.446;6.854;2023-05-17T06:14:19;10.57;;;2.90;;
8694;SDS011;65580;49.446;6.854;2023-05-17T06:18:22;8.55;;;2.88;;
8694;SDS011;65580;49.446;6.854;2023-05-17T06:22:26;7.82;;;2.40;;
8694;SDS011;65580;49.446;6.854;2023-05-17T06:26:29;8.15;;;2.92;;
8694;SDS011;65580;49.446;6.854;2023-05-17T06:30:32;9.05;;;2.97;;
8694;SDS011;65580;49.446;6.854;2023-05-17T06:34:35;13.13;;;3.40;;
8694;SDS011;65580;49.446;6.854;2023-05-17T06:38:41;14.38;;;3.83;;
8694;SDS011;65580;49.446;6.854;2023-05-17T06:42:44;12.15;;;3.58;;
8694;SDS011;65580;49.446;6.854;2023-05-17T06:46:46;11.52;;;3.97;;
8694;SDS011;65580;49.446;6.854;2023-05-17T06:50:49;11.32;;;4.20;;
8694;SDS011;65580;49.446;6.854;2023-05-17T06:54:53;9.93;;;3.78;;
8694;SDS011;65580;49.446;6.854;2023-05-17T06:58:56;11.73;;;4.28;;
8694;SDS011;65580;49.446;6.854;2023-05-17T07:02:59;14.10;;;4.63;;
8694;SDS011;65580;49.446;6.854;2023-05-17T07:07:02;11.98;;;4.53;;
8694;SDS011;65580;49.446;6.854;2023-05-17T07:11:06;11.63;;;4.65;;
8694;SDS011;65580;49.446;6.854;2023-05-17T07:15:10;17.55;;;6.13;;
8694;SDS011;65580;49.446;6.854;2023-05-17T07:19:12;14.43;;;5.25;;
8694;SDS011;65580;49.446;6.854;2023-05-17T07:23:15;12.30;;;5.80;;
8694;SDS011;65580;49.446;6.854;2023-05-17T07:27:19;13.60;;;5.10;;
8694;SDS011;65580;49.446;6.854;2023-05-17T07:31:22;9.02;;;4.60;;
8694;SDS011;65580;49.446;6.854;2023-05-17T07:35:25;10.23;;;5.00;;
8694;SDS011;65580;49.446;6.854;2023-05-17T07:39:28;16.17;;;5.13;;
8694;SDS011;65580;49.446;6.854;2023-05-17T07:43:32;12.45;;;5.25;;
8694;SDS011;65580;49.446;6.854;2023-05-17T07:47:35;9.65;;;4.65;;
8694;SDS011;65580;49.446;6.854;2023-05-17T07:51:37;11.48;;;5.28;;
8694;SDS011;65580;49.446;6.854;2023-05-17T07:55:40;16.33;;;5.07;;
8694;SDS011;65580;49.446;6.854;2023-05-17T07:59:54;13.35;;;5.22;;
8694;SDS011;65580;49.446;6.854;2023-05-17T08:03:56;11.05;;;4.82;;
8694;SDS011;65580;49.446;6.854;2023-05-17T08:07:59;13.00;;;4.93;;
8694;SDS011;65580;49.446;6.854;2023-05-17T08:12:02;11.70;;;4.35;;
8694;SDS011;65580;49.446;6.854;2023-05-17T08:16:07;11.23;;;3.95;;
8694;SDS011;65580;49.446;6.854;2023-05-17T08:20:15;9.30;;;3.35;;
8694;SDS011;65580;49.446;6.854;2023-05-17T08:24:18;9.13;;;3.53;;
8694;SDS011;65580;49.446;6.854;2023-05-17T08:28:20;9.30;;;3.13;;
8694;SDS011;65580;49.446;6.854;2023-05-17T08:32:25;13.02;;;3.13;;
8694;SDS011;65580;49.446;6.854;2023-05-17T08:36:28;10.60;;;3.10;;
8694;SDS011;65580;49.446;6.854;2023-05-17T08:40:32;8.20;;;3.78;;
8694;SDS011;65580;49.446;6.854;2023-05-17T08:44:34;6.10;;;2.70;;
8694;SDS011;65580;49.446;6.854;2023-05-17T08:48:40;7.47;;;2.60;;
8694;SDS011;65580;49.446;6.854;2023-05-17T08:52:44;8.25;;;2.80;;
8694;SDS011;65580;49.446;6.854;2023-05-17T08:56:47;7.32;;;2.50;;
8694;SDS011;65580;49.446;6.854;2023-05-17T09:00:52;4.60;;;2.08;;
8694;SDS011;65580;49.446;6.854;2023-05-17T09:04:57;7.97;;;2.65;;
8694;SDS011;65580;49.446;6.854;2023-05-17T09:09:01;5.90;;;2.78;;
8694;SDS011;65580;49.446;6.854;2023-05-17T09:13:04;10.27;;;2.83;;
8694;SDS011;65580;49.446;6.854;2023-05-17T09:17:06;7.43;;;2.67;;
8694;SDS011;65580;49.446;6.854;2023-05-17T09:21:10;7.78;;;2.55;;
8694;SDS011;65580;49.446;6.854;2023-05-17T09:25:17;6.45;;;2.50;;
8694;SDS011;65580;49.446;6.854;2023-05-17T09:29:20;9.52;;;2.97;;
8694;SDS011;65580;49.446;6.854;2023-05-17T09:33:23;6.50;;;2.90;;
8694;SDS011;65580;49.446;6.854;2023-05-17T09:37:27;6.47;;;2.92;;
8694;SDS011;65580;49.446;6.854;2023-05-17T09:41:31;7.03;;;2.70;;
8694;SDS011;65580;49.446;6.854;2023-05-17T09:45:35;6.57;;;2.70;;
8694;SDS011;65580;49.446;6.854;2023-05-17T09:49:37;7.15;;;3.10;;
8694;SDS011;65580;49.446;6.854;2023-05-17T09:53:42;15.80;;;3.20;;
8694;SDS011;65580;49.446;6.854;2023-05-17T09:57:44;9.40;;;3.20;;
8694;SDS011;65580;49.446;6.854;2023-05-17T10:01:49;6.35;;;2.65;;
8694;SDS011;65580;49.446;6.854;2023-05-17T10:05:51;10.10;;;2.92;;
8694;SDS011;65580;49.446;6.854;2023-05-17T10:09:56;8.05;;;3.40;;
8694;SDS011;65580;49.446;6.854;2023-05-17T10:14:04;11.38;;;3.28;;
8694;SDS011;65580;49.446;6.854;2023-05-17T10:18:11;6.68;;;2.80;;
8694;SDS011;65580;49.446;6.854;2023-05-17T10:22:14;8.88;;;3.22;;
8694;SDS011;65580;49.446;6.854;2023-05-17T10:26:25;8.00;;;3.08;;
8694;SDS011;65580;49.446;6.854;2023-05-17T10:30:28;8.55;;;2.85;;
8694;SDS011;65580;49.446;6.854;2023-05-17T10:34:31;6.13;;;2.60;;
8694;SDS011;65580;49.446;6.854;2023-05-17T10:38:35;8.63;;;3.42;;
8694;SDS011;65580;49.446;6.854;2023-05-17T10:42:45;7.65;;;3.00;;
8694;SDS011;65580;49.446;6.854;2023-05-17T10:46:52;9.73;;;3.05;;
8694;SDS011;65580;49.446;6.854;2023-05-17T10:50:56;7.22;;;2.95;;
8694;SDS011;65580;49.446;6.854;2023-05-17T10:55:02;9.15;;;2.97;;
8694;SDS011;65580;49.446;6.854;2023-05-17T10:59:16;7.85;;;3.17;;
8694;SDS011;65580;49.446;6.854;2023-05-17T11:03:24;6.82;;;2.92;;
8694;SDS011;65580;49.446;6.854;2023-05-17T11:07:29;7.95;;;3.63;;
8694;SDS011;65580;49.446;6.854;2023-05-17T11:11:35;6.10;;;3.05;;
8694;SDS011;65580;49.446;6.854;2023-05-17T11:15:39;7.80;;;3.10;;
8694;SDS011;65580;49.446;6.854;2023-05-17T11:19:48;7.90;;;3.22;;
8694;SDS011;65580;49.446;6.854;2023-05-17T11:23:56;5.97;;;2.53;;
8694;SDS011;65580;49.446;6.854;2023-05-17T11:28:07;4.95;;;2.75;;
8694;SDS011;65580;49.446;6.854;2023-05-17T11:32:12;5.32;;;2.78;;
8694;SDS011;65580;49.446;6.854;2023-05-17T11:36:17;5.70;;;2.72;;
8694;SDS011;65580;49.446;6.854;2023-05-17T11:40:24;8.15;;;3.05;;
8694;SDS011;65580;49.446;6.854;2023-05-17T11:44:29;7.38;;;2.63;;
8694;SDS011;65580;49.446;6.854;2023-05-17T11:48:34;5.60;;;2.45;;
8694;SDS011;65580;49.446;6.854;2023-05-17T11:52:38;7.57;;;2.60;;
8694;SDS011;65580;49.446;6.854;2023-05-17T11:56:42;6.22;;;2.30;;
8694;SDS011;65580;49.446;6.854;2023-05-17T12:00:44;5.15;;;2.40;;
8694;SDS011;65580;49.446;6.854;2023-05-17T12:04:49;8.90;;;2.45;;
8694;SDS011;65580;49.446;6.854;2023-05-17T12:08:51;8.27;;;2.22;;
8694;SDS011;65580;49.446;6.854;2023-05-17T12:12:54;7.00;;;2.40;;
8694;SDS011;65580;49.446;6.854;2023-05-17T12:16:58;8.65;;;2.50;;
8694;SDS011;65580;49.446;6.854;2023-05-17T12:21:03;6.15;;;2.05;;
8694;SDS011;65580;49.446;6.854;2023-05-17T12:25:17;6.65;;;2.17;;
8694;SDS011;65580;49.446;6.854;2023-05-17T12:29:20;5.30;;;2.50;;
8694;SDS011;65580;49.446;6.854;2023-05-17T12:33:25;5.82;;;2.33;;
8694;SDS011;65580;49.446;6.854;2023-05-17T12:37:29;4.05;;;2.17;;
8694;SDS011;65580;49.446;6.854;2023-05-17T12:41:32;6.45;;;2.20;;
8694;SDS011;65580;49.446;6.854;2023-05-17T12:45:35;7.40;;;2.13;;
8694;SDS011;65580;49.446;6.854;2023-05-17T12:49:37;6.82;;;2.20;;
8694;SDS011;65580;49.446;6.854;2023-05-17T12:53:43;6.35;;;1.75;;
8694;SDS011;65580;49.446;6.854;2023-05-17T12:57:50;8.23;;;1.95;;
8694;SDS011;65580;49.446;6.854;2023-05-17T13:01:53;90.10;;;4.70;;
8694;SDS011;65580;49.446;6.854;2023-05-17T13:05:57;5.82;;;1.83;;
8694;SDS011;65580;49.446;6.854;2023-05-17T13:10:17;6.10;;;2.10;;
8694;SDS011;65580;49.446;6.854;2023-05-17T13:14:34;9.70;;;2.30;;
8694;SDS011;65580;49.446;6.854;2023-05-17T13:18:47;7.80;;;2.10;;
8694;SDS011;65580;49.446;6.854;2023-05-17T13:22:52;6.97;;;1.90;;
8694;SDS011;65580;49.446;6.854;2023-05-17T13:26:56;8.80;;;2.15;;
8694;SDS011;65580;49.446;6.854;2023-05-17T13:30:59;7.68;;;2.30;;
8694;SDS011;65580;49.446;6.854;2023-05-17T13:35:01;44.47;;;3.40;;
8694;SDS011;65580;49.446;6.854;2023-05-17T13:39:04;5.43;;;1.67;;
8694;SDS011;65580;49.446;6.854;2023-05-17T13:43:08;9.07;;;2.20;;
8694;SDS011;65580;49.446;6.854;2023-05-17T13:47:11;8.38;;;2.38;;
8694;SDS011;65580;49.446;6.854;2023-05-17T13:51:14;6.50;;;1.88;;
8694;SDS011;65580;49.446;6.854;2023-05-17T13:55:17;6.53;;;2.38;;
8694;SDS011;65580;49.446;6.854;2023-05-17T13:59:21;6.38;;;2.30;;
8694;SDS011;65580;49.446;6.854;2023-05-17T14:03:24;4.82;;;2.10;;
8694;SDS011;65580;49.446;6.854;2023-05-17T14:07:27;20.30;;;2.67;;
8694;SDS011;65580;49.446;6.854;2023-05-17T14:11:30;7.78;;;2.63;;
8694;SDS011;65580;49.446;6.854;2023-05-17T14:19:38;6.47;;;2.42;;
8694;SDS011;65580;49.446;6.854;2023-05-17T14:23:41;8.85;;;2.60;;
8694;SDS011;65580;49.446;6.854;2023-05-17T14:27:44;6.60;;;2.28;;
8694;SDS011;65580;49.446;6.854;2023-05-17T14:35:50;20.38;;;3.50;;
8694;SDS011;65580;49.446;6.854;2023-05-17T14:39:53;6.25;;;2.58;;
8694;SDS011;65580;49.446;6.854;2023-05-17T14:44:06;46.95;;;3.40;;
8694;SDS011;65580;49.446;6.854;2023-05-17T14:52:13;7.43;;;2.60;;
8694;SDS011;65580;49.446;6.854;2023-05-17T14:56:16;5.65;;;3.10;;
8694;SDS011;65580;49.446;6.854;2023-05-17T15:00:19;6.22;;;2.80;;
8694;SDS011;65580;49.446;6.854;2023-05-17T15:04:24;7.63;;;2.92;;
8694;SDS011;65580;49.446;6.854;2023-05-17T15:08:27;6.25;;;2.40;;
8694;SDS011;65580;49.446;6.854;2023-05-17T15:12:30;9.00;;;2.90;;
8694;SDS011;65580;49.446;6.854;2023-05-17T15:20:37;5.55;;;2.65;;
8694;SDS011;65580;49.446;6.854;2023-05-17T15:24:40;9.48;;;2.80;;
8694;SDS011;65580;49.446;6.854;2023-05-17T15:32:45;12.23;;;2.88;;
8694;SDS011;65580;49.446;6.854;2023-05-17T15:36:49;6.00;;;2.25;;
8694;SDS011;65580;49.446;6.854;2023-05-17T15:40:59;8.35;;;2.58;;
8694;SDS011;65580;49.446;6.854;2023-05-17T15:45:03;6.50;;;2.53;;
8694;SDS011;65580;49.446;6.854;2023-05-17T15:49:06;8.32;;;2.38;;
8694;SDS011;65580;49.446;6.854;2023-05-17T15:53:10;4.65;;;1.85;;
8694;SDS011;65580;49.446;6.854;2023-05-17T15:57:13;5.30;;;2.05;;
8694;SDS011;65580;49.446;6.854;2023-05-17T16:01:16;3.55;;;1.98;;
8694;SDS011;65580;49.446;6.854;2023-05-17T16:05:19;6.47;;;1.90;;
8694;SDS011;65580;49.446;6.854;2023-05-17T16:13:26;5.97;;;1.80;;
8694;SDS011;65580;49.446;6.854;2023-05-17T16:17:29;5.70;;;1.73;;
8694;SDS011;65580;49.446;6.854;2023-05-17T16:21:32;7.65;;;1.75;;
8694;SDS011;65580;49.446;6.854;2023-05-17T16:25:37;7.57;;;1.70;;
8694;SDS011;65580;49.446;6.854;2023-05-17T16:29:40;4.70;;;1.52;;
8694;SDS011;65580;49.446;6.854;2023-05-17T16:33:43;7.72;;;2.20;;
8694;SDS011;65580;49.446;6.854;2023-05-17T16:37:45;7.35;;;1.80;;
8694;SDS011;65580;49.446;6.854;2023-05-17T16:41:52;5.43;;;1.40;;
8694;SDS011;65580;49.446;6.854;2023-05-17T16:45:55;6.47;;;1.60;;
8694;SDS011;65580;49.446;6.854;2023-05-17T16:49:58;6.50;;;1.83;;
8694;SDS011;65580;49.446;6.854;2023-05-17T16:54:01;7.07;;;1.58;;
8694;SDS011;65580;49.446;6.854;2023-05-17T16:58:06;3.65;;;1.30;;
8694;SDS011;65580;49.446;6.854;2023-05-17T17:02:10;11.32;;;1.52;;
8694;SDS011;65580;49.446;6.854;2023-05-17T17:06:13;5.55;;;1.33;;
8694;SDS011;65580;49.446;6.854;2023-05-17T17:10:15;6.93;;;1.73;;
8694;SDS011;65580;49.446;6.854;2023-05-17T17:14:21;7.63;;;1.60;;
8694;SDS011;65580;49.446;6.854;2023-05-17T17:18:24;7.00;;;1.45;;
8694;SDS011;65580;49.446;6.854;2023-05-17T17:22:27;4.25;;;1.40;;
8694;SDS011;65580;49.446;6.854;2023-05-17T17:26:29;8.68;;;1.60;;
8694;SDS011;65580;49.446;6.854;2023-05-17T17:30:33;7.40;;;1.40;;
8694;SDS011;65580;49.446;6.854;2023-05-17T17:34:36;10.50;;;1.65;;
8694;SDS011;65580;49.446;6.854;2023-05-17T17:38:39;5.43;;;1.23;;
8694;SDS011;65580;49.446;6.854;2023-05-17T17:42:42;6.53;;;1.63;;
8694;SDS011;65580;49.446;6.854;2023-05-17T17:46:46;6.88;;;1.70;;
8694;SDS011;65580;49.446;6.854;2023-05-17T17:50:48;4.97;;;1.35;;
8694;SDS011;65580;49.446;6.854;2023-05-17T17:54:51;5.43;;;1.42;;
8694;SDS011;65580;49.446;6.854;2023-05-17T17:58:54;5.32;;;1.50;;
8694;SDS011;65580;49.446;6.854;2023-05-17T18:02:58;5.70;;;1.55;;
8694;SDS011;65580;49.446;6.854;2023-05-17T18:07:01;8.95;;;1.60;;
8694;SDS011;65580;49.446;6.854;2023-05-17T18:11:04;7.60;;;1.63;;
8694;SDS011;65580;49.446;6.854;2023-05-17T18:15:07;4.75;;;1.45;;
8694;SDS011;65580;49.446;6.854;2023-05-17T18:19:12;6.07;;;2.00;;
8694;SDS011;65580;49.446;6.854;2023-05-17T18:23:15;8.25;;;1.70;;
8694;SDS011;65580;49.446;6.854;2023-05-17T18:27:17;7.72;;;1.70;;
8694;SDS011;65580;49.446;6.854;2023-05-17T18:31:20;5.32;;;1.45;;
8694;SDS011;65580;49.446;6.854;2023-05-17T18:35:24;3.55;;;1.40;;
8694;SDS011;65580;49.446;6.854;2023-05-17T18:39:27;10.20;;;1.50;;
8694;SDS011;65580;49.446;6.854;2023-05-17T18:43:30;7.07;;;1.42;;
8694;SDS011;65580;49.446;6.854;2023-05-17T18:47:33;2.75;;;1.38;;
8694;SDS011;65580;49.446;6.854;2023-05-17T18:51:38;3.50;;;1.40;;
8694;SDS011;65580;49.446;6.854;2023-05-17T18:55:40;5.82;;;1.50;;
8694;SDS011;65580;49.446;6.854;2023-05-17T18:59:43;11.80;;;1.80;;
8694;SDS011;65580;49.446;6.854;2023-05-17T19:03:46;6.35;;;1.60;;
8694;SDS011;65580;49.446;6.854;2023-05-17T19:07:53;4.78;;;1.38;;
8694;SDS011;65580;49.446;6.854;2023-05-17T19:11:55;5.40;;;1.70;;
8694;SDS011;65580;49.446;6.854;2023-05-17T19:15:58;6.70;;;1.83;;
8694;SDS011;65580;49.446;6.854;2023-05-17T19:20:03;6.22;;;1.80;;
8694;SDS011;65580;49.446;6.854;2023-05-17T19:24:08;4.65;;;1.73;;
8694;SDS011;65580;49.446;6.854;2023-05-17T19:28:11;7.57;;;1.70;;
8694;SDS011;65580;49.446;6.854;2023-05-17T19:32:13;11.95;;;1.95;;
8694;SDS011;65580;49.446;6.854;2023-05-17T19:36:16;7.32;;;2.55;;
8694;SDS011;65580;49.446;6.854;2023-05-17T19:40:20;7.05;;;2.00;;
8694;SDS011;65580;49.446;6.854;2023-05-17T19:44:23;5.50;;;1.92;;
8694;SDS011;65580;49.446;6.854;2023-05-17T19:48:26;6.95;;;2.10;;
8694;SDS011;65580;49.446;6.854;2023-05-17T19:52:28;9.57;;;2.60;;
8694;SDS011;65580;49.446;6.854;2023-05-17T19:56:32;6.95;;;2.25;;
8694;SDS011;65580;49.446;6.854;2023-05-17T20:00:35;4.97;;;2.03;;
8694;SDS011;65580;49.446;6.854;2023-05-17T20:04:38;7.32;;;2.17;;
8694;SDS011;65580;49.446;6.854;2023-05-17T20:08:41;9.50;;;3.05;;
8694;SDS011;65580;49.446;6.854;2023-05-17T20:12:45;9.20;;;3.08;;
8694;SDS011;65580;49.446;6.854;2023-05-17T20:16:48;7.97;;;3.15;;
8694;SDS011;65580;49.446;6.854;2023-05-17T20:20:51;6.70;;;2.40;;
8694;SDS011;65580;49.446;6.854;2023-05-17T20:24:56;12.65;;;2.90;;
8694;SDS011;65580;49.446;6.854;2023-05-17T20:29:00;5.28;;;2.60;;
8694;SDS011;65580;49.446;6.854;2023-05-17T20:33:03;6.60;;;3.00;;
8694;SDS011;65580;49.446;6.854;2023-05-17T20:37:08;9.77;;;2.58;;
8694;SDS011;65580;49.446;6.854;2023-05-17T20:41:11;4.88;;;2.50;;
8694;SDS011;65580;49.446;6.854;2023-05-17T20:49:19;8.90;;;2.75;;
8694;SDS011;65580;49.446;6.854;2023-05-17T20:53:21;7.47;;;2.83;;
8694;SDS011;65580;49.446;6.854;2023-05-17T20:57:24;7.13;;;2.70;;
8694;SDS011;65580;49.446;6.854;2023-05-17T21:01:28;6.90;;;2.90;;
8694;SDS011;65580;49.446;6.854;2023-05-17T21:05:31;11.85;;;2.90;;
8694;SDS011;65580;49.446;6.854;2023-05-17T21:09:36;9.85;;;3.30;;
8694;SDS011;65580;49.446;6.854;2023-05-17T21:13:39;10.20;;;3.50;;
8694;SDS011;65580;49.446;6.854;2023-05-17T21:17:43;7.35;;;3.17;;
8694;SDS011;65580;49.446;6.854;2023-05-17T21:21:46;12.27;;;3.70;;
8694;SDS011;65580;49.446;6.854;2023-05-17T21:25:49;12.70;;;3.40;;
8694;SDS011;65580;49.446;6.854;2023-05-17T21:29:51;11.55;;;3.50;;
8694;SDS011;65580;49.446;6.854;2023-05-17T21:33:56;10.13;;;3.08;;
8694;SDS011;65580;49.446;6.854;2023-05-17T21:37:58;8.55;;;2.95;;
8694;SDS011;65580;49.446;6.854;2023-05-17T21:42:01;13.15;;;3.03;;
8694;SDS011;65580;49.446;6.854;2023-05-17T21:46:04;7.97;;;3.20;;
8694;SDS011;65580;49.446;6.854;2023-05-17T21:50:09;10.80;;;2.90;;
8694;SDS011;65580;49.446;6.854;2023-05-17T21:54:12;8.40;;;3.35;;
8694;SDS011;65580;49.446;6.854;2023-05-17T21:58:15;6.18;;;2.80;;
8694;SDS011;65580;49.446;6.854;2023-05-17T22:02:19;9.80;;;2.60;;
8694;SDS011;65580;49.446;6.854;2023-05-17T22:06:23;8.85;;;2.50;;
8694;SDS011;65580;49.446;6.854;2023-05-17T22:10:27;10.75;;;2.63;;
8694;SDS011;65580;49.446;6.854;2023-05-17T22:14:30;11.30;;;3.03;;
8694;SDS011;65580;49.446;6.854;2023-05-17T22:18:35;9.80;;;2.75;;
8694;SDS011;65580;49.446;6.854;2023-05-17T22:22:39;5.50;;;2.83;;
8694;SDS011;65580;49.446;6.854;2023-05-17T22:26:42;6.53;;;3.20;;
8694;SDS011;65580;49.446;6.854;2023-05-17T22:30:45;8.48;;;2.80;;
8694;SDS011;65580;49.446;6.854;2023-05-17T22:34:48;9.45;;;2.92;;
8694;SDS011;65580;49.446;6.854;2023-05-17T22:38:54;9.48;;;3.17;;
8694;SDS011;65580;49.446;6.854;2023-05-17T22:42:58;8.88;;;3.67;;
8694;SDS011;65580;49.446;6.854;2023-05-17T22:47:03;13.48;;;3.60;;
8694;SDS011;65580;49.446;6.854;2023-05-17T22:51:06;9.30;;;3.58;;
8694;SDS011;65580;49.446;6.854;2023-05-17T22:55:10;12.30;;;4.18;;
8694;SDS011;65580;49.446;6.854;2023-05-17T22:59:13;16.02;;;5.07;;
8694;SDS011;65580;49.446;6.854;2023-05-17T23:03:16;15.02;;;4.10;;
8694;SDS011;65580;49.446;6.854;2023-05-17T23:07:18;9.63;;;4.05;;
8694;SDS011;65580;49.446;6.854;2023-05-17T23:11:23;7.20;;;2.85;;
8694;SDS011;65580;49.446;6.854;2023-05-17T23:15:26;8.60;;;2.65;;
8694;SDS011;65580;49.446;6.854;2023-05-17T23:19:30;8.20;;;2.53;;
8694;SDS011;65580;49.446;6.854;2023-05-17T23:23:34;9.93;;;2.80;;
8694;SDS011;65580;49.446;6.854;2023-05-17T23:27:39;9.80;;;2.65;;
8694;SDS011;65580;49.446;6.854;2023-05-17T23:31:44;10.95;;;2.70;;
8694;SDS011;65580;49.446;6.854;2023-05-17T23:35:48;11.63;;;3.05;;
8694;SDS011;65580;49.446;6.854;2023-05-17T23:39:53;7.28;;;2.80;;
8694;SDS011;65580;49.446;6.854;2023-05-17T23:43:58;7.13;;;2.70;;
8694;SDS011;65580;49.446;6.854;2023-05-17T23:48:00;7.10;;;2.50;;
8694;SDS011;65580;49.446;6.854;2023-05-17T23:52:04;9.75;;;2.78;;
8694;SDS011;65580;49.446;6.854;2023-05-17T23:56:11;10.15;;;2.40;;
